createdAt,value
2019-05-26T00:00:22.255Z,100.00
2019-05-26T00:02:51.936Z,100.00
2019-05-26T00:05:21.679Z,100.00
2019-05-26T00:07:51.578Z,100.00
2019-05-26T00:10:21.326Z,100.00
2019-05-26T00:12:51.104Z,100.00
2019-05-26T00:15:20.780Z,100.00
2019-05-26T00:17:50.459Z,100.00
2019-05-26T00:20:20.551Z,100.00
2019-05-26T00:22:50.345Z,100.00
2019-05-26T00:25:20.157Z,100.00
2019-05-26T00:27:49.828Z,100.00
2019-05-26T00:30:19.982Z,100.00
2019-05-26T00:32:49.698Z,100.00
2019-05-26T00:35:19.481Z,100.00
2019-05-26T00:37:50.739Z,100.00
2019-05-26T00:40:20.905Z,100.00
2019-05-26T00:42:51.344Z,100.00
2019-05-26T00:45:21.224Z,100.00
2019-05-26T00:47:50.927Z,100.00
2019-05-26T00:50:21.037Z,100.00
2019-05-26T00:52:56.290Z,100.00
2019-05-26T00:55:26.492Z,100.00
2019-05-26T00:57:56.239Z,100.00
2019-05-26T01:00:40.211Z,100.00
2019-05-26T01:03:10.931Z,100.00
2019-05-26T01:05:40.712Z,100.00
2019-05-26T01:08:10.637Z,100.00
2019-05-26T01:10:40.759Z,100.00
2019-05-26T01:13:10.660Z,100.00
2019-05-26T01:15:40.404Z,100.00
2019-05-26T01:18:10.201Z,100.00
2019-05-26T01:20:41.931Z,100.00
2019-05-26T01:23:16.348Z,100.00
2019-05-26T01:25:46.113Z,100.00
2019-05-26T01:28:16.003Z,100.00
2019-05-26T01:30:46.082Z,100.00
2019-05-26T01:33:15.821Z,100.00
2019-05-26T01:35:45.962Z,100.00
2019-05-26T01:38:23.804Z,100.00
2019-05-26T01:40:47.583Z,100.00
2019-05-26T01:43:17.398Z,100.00
2019-05-26T01:45:47.151Z,100.00
2019-05-26T01:48:16.906Z,100.00
2019-05-26T01:50:46.810Z,100.00
2019-05-26T01:53:16.575Z,100.00
2019-05-26T01:55:46.286Z,84.79
2019-05-26T01:58:16.021Z,73.32
2019-05-26T02:00:45.886Z,74.22
2019-05-26T02:03:15.680Z,82.32
2019-05-26T02:05:46.231Z,85.45
2019-05-26T02:08:16.090Z,93.98
2019-05-26T02:10:45.855Z,100.00
2019-05-26T02:13:15.656Z,100.00
2019-05-26T02:15:45.351Z,100.00
2019-05-26T02:18:15.731Z,100.00
2019-05-26T02:20:46.048Z,100.00
2019-05-26T02:23:15.653Z,100.00
2019-05-26T02:25:45.371Z,100.00
2019-05-26T02:28:15.043Z,99.80
2019-05-26T02:30:44.734Z,65.69
2019-05-26T02:33:17.787Z,56.68
2019-05-26T02:35:48.324Z,44.77
2019-05-26T02:38:18.090Z,31.70
2019-05-26T02:40:48.288Z,15.46
2019-05-26T02:43:18.032Z,12.74
2019-05-26T02:45:47.699Z,1.01
2019-05-26T02:48:17.390Z,3.27
2019-05-26T02:50:47.072Z,0.00
2019-05-26T02:53:16.716Z,10.06
2019-05-26T02:55:46.573Z,18.63
2019-05-26T02:58:16.973Z,20.65
2019-05-26T03:00:47.432Z,22.91
2019-05-26T03:03:17.708Z,20.19
2019-05-26T03:05:47.654Z,16.58
2019-05-26T03:08:20.046Z,0.00
2019-05-26T03:10:51.261Z,0.00
2019-05-26T03:13:21.326Z,0.00
2019-05-26T03:15:51.735Z,0.00
2019-05-26T03:18:21.483Z,0.00
2019-05-26T03:20:51.256Z,0.00
2019-05-26T03:23:21.228Z,0.00
2019-05-26T03:25:50.992Z,0.00
2019-05-26T03:28:21.522Z,0.00
2019-05-26T03:30:51.135Z,0.00
2019-05-26T03:33:24.337Z,0.00
2019-05-26T03:35:54.082Z,6.66
2019-05-26T03:38:23.662Z,18.18
2019-05-26T03:40:53.559Z,34.17
2019-05-26T03:43:23.251Z,45.44
2019-05-26T03:46:08.246Z,44.31
2019-05-26T03:48:38.045Z,47.48
2019-05-26T03:51:07.510Z,58.27
2019-05-26T03:53:37.205Z,66.14
2019-05-26T03:56:07.827Z,80.52
2019-05-26T03:58:38.183Z,100.00
2019-05-26T04:01:08.005Z,100.00
2019-05-26T04:03:40.035Z,100.00
2019-05-26T04:06:09.769Z,100.00
2019-05-26T04:08:39.580Z,100.00
2019-05-26T04:11:10.354Z,100.00
2019-05-26T04:13:40.714Z,100.00
2019-05-26T04:16:10.607Z,100.00
2019-05-26T04:18:41.220Z,100.00
2019-05-26T04:21:10.888Z,100.00
2019-05-26T04:23:40.724Z,100.00
2019-05-26T04:26:10.487Z,100.00
2019-05-26T04:28:41.038Z,100.00
2019-05-26T04:31:10.762Z,100.00
2019-05-26T04:33:40.461Z,0.00
2019-05-26T04:36:10.247Z,0.00
2019-05-26T04:38:40.089Z,0.00
2019-05-26T04:41:09.870Z,0.00
2019-05-26T04:43:39.645Z,0.00
2019-05-26T04:46:09.314Z,0.00
2019-05-26T04:48:39.208Z,0.00
2019-05-26T04:51:09.926Z,0.00
2019-05-26T04:53:39.677Z,0.00
2019-05-26T04:56:09.383Z,0.00
2019-05-26T04:58:39.127Z,0.00
2019-05-26T05:01:08.912Z,0.00
2019-05-26T05:03:38.681Z,0.00
2019-05-26T05:06:08.498Z,0.00
2019-05-26T05:08:38.349Z,0.00
2019-05-26T05:11:08.435Z,0.00
2019-05-26T05:13:41.322Z,0.00
2019-05-26T05:16:11.102Z,0.00
2019-05-26T05:18:41.679Z,0.00
2019-05-26T05:21:17.609Z,0.00
2019-05-26T05:23:51.006Z,100.00
2019-05-26T05:26:23.080Z,0.00
2019-05-26T05:28:52.880Z,0.00
2019-05-26T05:31:22.498Z,100.00
2019-05-26T05:33:52.278Z,100.00
2019-05-26T05:36:23.565Z,100.00
2019-05-26T05:38:55.937Z,100.00
2019-05-26T05:41:26.919Z,0.00
2019-05-26T05:43:59.801Z,0.00
2019-05-26T05:46:29.563Z,0.00
2019-05-26T05:49:00.093Z,0.00
2019-05-26T05:51:32.290Z,0.00
2019-05-26T05:54:03.346Z,0.00
2019-05-26T05:56:35.070Z,0.00
2019-05-26T05:59:07.109Z,0.00
2019-05-26T06:01:37.471Z,0.00
2019-05-26T06:04:08.068Z,0.00
2019-05-26T06:06:37.953Z,0.00
2019-05-26T06:09:07.712Z,0.00
2019-05-26T06:11:39.181Z,0.00
2019-05-26T06:14:09.016Z,0.00
2019-05-26T06:16:38.754Z,0.00
2019-05-26T06:19:10.035Z,0.00
2019-05-26T06:21:41.650Z,100.00
2019-05-26T06:24:11.326Z,100.00
2019-05-26T06:26:41.129Z,100.00
2019-05-26T06:29:14.427Z,100.00
2019-05-26T06:31:45.061Z,100.00
2019-05-26T06:34:16.408Z,100.00
2019-05-26T06:36:47.964Z,100.00
2019-05-26T06:39:19.091Z,100.00
2019-05-26T06:41:49.742Z,100.00
2019-05-26T06:44:22.252Z,100.00
2019-05-26T06:46:55.195Z,0.00
2019-05-26T06:49:26.916Z,100.00
2019-05-26T06:51:56.768Z,100.00
2019-05-26T06:54:29.646Z,100.00
2019-05-26T06:57:02.294Z,0.00
2019-05-26T06:59:32.873Z,0.00
2019-05-26T07:02:03.915Z,0.00
2019-05-26T07:04:33.971Z,0.00
2019-05-26T07:07:04.768Z,0.00
2019-05-26T07:09:35.829Z,0.00
2019-05-26T07:12:06.842Z,0.00
2019-05-26T07:14:39.591Z,23.54
2019-05-26T07:17:11.701Z,21.79
2019-05-26T07:19:44.737Z,8.35
2019-05-26T07:22:14.516Z,63.06
2019-05-26T07:24:44.308Z,35.10
2019-05-26T07:27:16.921Z,100.00
2019-05-26T07:29:48.022Z,62.43
2019-05-26T07:32:20.062Z,62.05
2019-05-26T07:34:53.411Z,100.00
2019-05-26T07:37:24.975Z,100.00
2019-05-26T07:39:54.827Z,100.00
2019-05-26T07:42:24.901Z,100.00
2019-05-26T07:44:57.131Z,100.00
2019-05-26T07:47:26.793Z,100.00
2019-05-26T07:49:58.813Z,100.00
2019-05-26T07:52:30.042Z,100.00
2019-05-26T07:54:59.832Z,100.00
2019-05-26T07:57:29.927Z,100.00
2019-05-26T08:00:03.693Z,79.92
2019-05-26T08:02:33.512Z,0.00
2019-05-26T08:05:04.367Z,0.00
2019-05-26T08:07:34.160Z,0.00
2019-05-26T08:10:06.867Z,0.00
2019-05-26T08:12:36.654Z,0.00
2019-05-26T08:15:08.751Z,0.00
2019-05-26T08:17:38.505Z,0.00
2019-05-26T08:20:11.599Z,0.00
2019-05-26T08:22:41.853Z,0.00
2019-05-26T08:25:12.394Z,0.00
2019-05-26T08:27:42.464Z,0.00
2019-05-26T08:30:12.154Z,0.00
2019-05-26T08:32:41.973Z,0.00
2019-05-26T08:35:11.668Z,0.00
2019-05-26T08:37:41.434Z,0.00
2019-05-26T08:40:20.351Z,17.80
2019-05-26T08:42:51.351Z,51.71
2019-05-26T08:45:22.631Z,94.36
2019-05-26T08:47:52.977Z,100.00
2019-05-26T08:50:25.291Z,0.00
2019-05-26T08:52:55.024Z,0.00
2019-05-26T08:55:24.768Z,0.00
2019-05-26T08:57:54.606Z,25.00
2019-05-26T09:00:24.628Z,62.13
2019-05-26T09:02:54.506Z,90.40
2019-05-26T09:05:24.212Z,0.76
2019-05-26T09:07:53.733Z,15.62
2019-05-26T09:10:23.936Z,74.65
2019-05-26T09:13:00.904Z,100.00
2019-05-26T09:15:25.168Z,100.00
2019-05-26T09:17:54.842Z,100.00
2019-05-26T09:20:24.684Z,100.00
2019-05-26T09:22:54.514Z,21.10
2019-05-26T09:25:24.264Z,0.00
2019-05-26T09:27:54.050Z,0.00
2019-05-26T09:30:23.864Z,0.00
2019-05-26T09:32:53.763Z,17.10
2019-05-26T09:35:23.546Z,62.13
2019-05-26T09:37:53.278Z,77.89
2019-05-26T09:40:23.746Z,78.20
2019-05-26T09:42:53.483Z,71.00
2019-05-26T09:45:23.156Z,41.41
2019-05-26T09:47:52.857Z,59.47
2019-05-26T09:50:22.531Z,86.32
2019-05-26T09:52:52.275Z,100.00
2019-05-26T09:55:22.047Z,90.50
2019-05-26T09:57:53.418Z,29.13
2019-05-26T10:00:23.191Z,3.68
2019-05-26T10:02:52.967Z,27.99
2019-05-26T10:05:22.715Z,62.41
2019-05-26T10:07:52.506Z,58.12
2019-05-26T10:10:22.305Z,36.04
2019-05-26T10:12:52.018Z,24.39
2019-05-26T10:15:21.826Z,31.98
2019-05-26T10:17:51.607Z,46.73
2019-05-26T10:20:22.098Z,79.92
2019-05-26T10:22:51.904Z,100.00
2019-05-26T10:25:21.706Z,82.64
2019-05-26T10:27:51.504Z,42.01
2019-05-26T10:30:21.421Z,0.00
2019-05-26T10:32:51.206Z,0.00
2019-05-26T10:35:20.946Z,0.00
2019-05-26T10:37:50.751Z,0.00
2019-05-26T10:40:20.376Z,0.00
2019-05-26T10:42:49.956Z,0.00
2019-05-26T10:45:19.687Z,0.00
2019-05-26T10:47:49.385Z,32.71
2019-05-26T10:50:19.225Z,39.95
2019-05-26T10:52:48.889Z,13.11
2019-05-26T10:55:19.419Z,43.10
2019-05-26T10:57:49.137Z,18.21
2019-05-26T11:00:19.365Z,87.90
2019-05-26T11:02:49.048Z,100.00
2019-05-26T11:05:18.678Z,100.00
2019-05-26T11:07:48.606Z,100.00
2019-05-26T11:10:18.299Z,100.00
2019-05-26T11:12:47.986Z,100.00
2019-05-26T11:15:18.245Z,100.00
2019-05-26T11:17:48.006Z,100.00
2019-05-26T11:20:17.728Z,82.87
2019-05-26T11:22:47.487Z,18.27
2019-05-26T11:25:17.268Z,0.00
2019-05-26T11:27:46.765Z,0.00
2019-05-26T11:30:16.812Z,0.00
2019-05-26T11:32:46.605Z,10.22
2019-05-26T11:35:16.807Z,23.69
2019-05-26T11:37:46.526Z,4.80
2019-05-26T11:40:17.688Z,0.00
2019-05-26T11:42:47.412Z,0.00
2019-05-26T11:45:18.643Z,3.68
2019-05-26T11:47:48.346Z,30.65
2019-05-26T11:50:18.193Z,42.25
2019-05-26T11:52:47.986Z,42.88
2019-05-26T11:55:17.719Z,21.93
2019-05-26T11:57:47.421Z,4.80
2019-05-26T12:00:17.505Z,0.00
2019-05-26T12:02:59.783Z,0.00
2019-05-26T12:05:30.126Z,0.00
2019-05-26T12:07:59.746Z,0.00
2019-05-26T12:10:29.499Z,0.00
2019-05-26T12:12:59.009Z,0.00
2019-05-26T12:15:29.069Z,0.00
2019-05-26T12:17:58.884Z,0.00
2019-05-26T12:20:28.578Z,0.00
2019-05-26T12:22:58.279Z,0.00
2019-05-26T12:25:27.902Z,0.00
2019-05-26T12:27:57.626Z,0.00
2019-05-26T12:30:27.400Z,0.00
2019-05-26T12:32:57.278Z,0.00
2019-05-26T12:35:28.663Z,0.00
2019-05-26T12:37:58.694Z,0.00
2019-05-26T12:40:29.366Z,0.00
2019-05-26T12:42:59.145Z,0.00
2019-05-26T12:45:28.889Z,0.00
2019-05-26T12:47:58.526Z,0.00
2019-05-26T12:50:34.602Z,0.00
2019-05-26T12:53:04.967Z,0.00
2019-05-26T12:55:34.595Z,0.00
2019-05-26T12:58:04.609Z,0.00
2019-05-26T13:00:48.144Z,0.00
2019-05-26T13:03:08.241Z,0.00
2019-05-26T13:05:37.982Z,0.00
2019-05-26T13:08:07.786Z,0.00
2019-05-26T13:10:38.145Z,0.00
2019-05-26T13:13:11.969Z,0.00
2019-05-26T13:15:41.698Z,100.00
2019-05-26T13:18:11.497Z,100.00
2019-05-26T13:20:41.216Z,100.00
2019-05-26T13:23:13.279Z,100.00
2019-05-26T13:25:43.066Z,100.00
2019-05-26T13:28:12.739Z,100.00
2019-05-26T13:30:42.541Z,100.00
2019-05-26T13:33:12.231Z,100.00
2019-05-26T13:35:42.079Z,100.00
2019-05-26T13:38:11.775Z,100.00
2019-05-26T13:40:41.577Z,0.00
2019-05-26T13:43:11.351Z,0.00
2019-05-26T13:45:41.103Z,0.00
2019-05-26T13:48:10.794Z,0.00
2019-05-26T13:50:40.496Z,0.00
2019-05-26T13:53:10.236Z,0.00
2019-05-26T13:55:40.037Z,0.00
2019-05-26T13:58:09.760Z,0.00
2019-05-26T14:00:39.496Z,0.00
2019-05-26T14:03:09.296Z,0.00
2019-05-26T14:05:40.151Z,0.00
2019-05-26T14:08:09.955Z,0.00
2019-05-26T14:10:39.860Z,0.00
2019-05-26T14:13:09.814Z,0.00
2019-05-26T14:15:39.605Z,0.00
2019-05-26T14:18:09.414Z,0.00
2019-05-26T14:20:43.636Z,100.00
2019-05-26T14:23:13.373Z,100.00
2019-05-26T14:25:43.001Z,100.00
2019-05-26T14:28:12.705Z,100.00
2019-05-26T14:30:42.418Z,100.00
2019-05-26T14:33:12.176Z,100.00
2019-05-26T14:35:41.982Z,100.00
2019-05-26T14:38:11.871Z,100.00
2019-05-26T14:40:41.636Z,100.00
2019-05-26T14:43:11.354Z,100.00
2019-05-26T14:45:52.853Z,100.00
2019-05-26T14:48:12.638Z,100.00
2019-05-26T14:50:42.396Z,100.00
2019-05-26T14:53:16.006Z,100.00
2019-05-26T14:55:45.776Z,100.00
2019-05-26T14:58:16.784Z,100.00
2019-05-26T15:00:46.815Z,100.00
2019-05-26T15:03:16.676Z,100.00
2019-05-26T15:05:46.454Z,100.00
2019-05-26T15:08:16.256Z,100.00
2019-05-26T15:10:46.034Z,100.00
2019-05-26T15:13:15.776Z,100.00
2019-05-26T15:15:45.495Z,100.00
2019-05-26T15:18:15.236Z,100.00
2019-05-26T15:20:45.334Z,100.00
2019-05-26T15:23:15.011Z,100.00
2019-05-26T15:25:44.776Z,100.00
2019-05-26T15:28:14.635Z,100.00
2019-05-26T15:30:44.439Z,100.00
2019-05-26T15:33:14.214Z,100.00
2019-05-26T15:35:45.094Z,100.00
2019-05-26T15:38:15.035Z,100.00
2019-05-26T15:40:44.896Z,100.00
2019-05-26T15:43:14.975Z,100.00
2019-05-26T15:45:45.076Z,100.00
2019-05-26T15:48:15.137Z,100.00
2019-05-26T15:50:47.308Z,100.00
2019-05-26T15:53:16.992Z,100.00
2019-05-26T15:55:46.816Z,100.00
2019-05-26T15:58:18.197Z,100.00
2019-05-26T16:00:47.909Z,100.00
2019-05-26T16:03:17.611Z,100.00
2019-05-26T16:05:47.334Z,100.00
2019-05-26T16:08:17.245Z,100.00
2019-05-26T16:10:47.136Z,100.00
2019-05-26T16:13:16.836Z,100.00
2019-05-26T16:15:47.142Z,100.00
2019-05-26T16:18:18.961Z,100.00
2019-05-26T16:20:48.855Z,100.00
2019-05-26T16:23:18.608Z,100.00
2019-05-26T16:25:48.395Z,100.00
2019-05-26T16:28:18.176Z,100.00
2019-05-26T16:30:48.058Z,100.00
2019-05-26T16:33:17.813Z,100.00
2019-05-26T16:35:47.603Z,100.00
2019-05-26T16:38:17.474Z,100.00
2019-05-26T16:40:47.345Z,100.00
2019-05-26T16:43:21.201Z,100.00
2019-05-26T16:45:56.014Z,0.00
2019-05-26T16:48:22.606Z,0.00
2019-05-26T16:50:52.817Z,0.00
2019-05-26T16:53:22.567Z,0.00
2019-05-26T16:55:53.347Z,0.00
2019-05-26T16:58:23.490Z,0.00
2019-05-26T17:00:59.769Z,0.00
2019-05-26T17:03:29.753Z,0.00
2019-05-26T17:06:08.023Z,100.00
2019-05-26T17:08:31.075Z,100.00
2019-05-26T17:11:00.888Z,100.00
2019-05-26T17:13:33.026Z,100.00
2019-05-26T17:16:03.250Z,100.00
2019-05-26T17:18:33.403Z,100.00
2019-05-26T17:21:08.299Z,100.00
2019-05-26T17:23:38.649Z,100.00
2019-05-26T17:26:10.511Z,100.00
2019-05-26T17:28:40.230Z,100.00
2019-05-26T17:31:10.510Z,100.00
2019-05-26T17:33:40.518Z,100.00
2019-05-26T17:36:10.226Z,100.00
2019-05-26T17:38:39.998Z,100.00
2019-05-26T17:41:09.761Z,100.00
2019-05-26T17:43:39.575Z,100.00
2019-05-26T17:46:11.296Z,100.00
2019-05-26T17:48:42.841Z,100.00
2019-05-26T17:51:15.807Z,100.00
2019-05-26T17:53:48.444Z,100.00
2019-05-26T17:56:20.388Z,100.00
2019-05-26T17:58:50.574Z,100.00
2019-05-26T18:01:20.747Z,100.00
2019-05-26T18:03:52.690Z,100.00
2019-05-26T18:06:26.182Z,100.00
2019-05-26T18:08:56.957Z,100.00
2019-05-26T18:11:27.122Z,100.00
2019-05-26T18:13:57.942Z,100.00
2019-05-26T18:16:27.752Z,100.00
2019-05-26T18:18:57.644Z,100.00
2019-05-26T18:21:27.897Z,100.00
2019-05-26T18:23:58.004Z,100.00
2019-05-26T18:26:31.182Z,100.00
2019-05-26T18:29:02.519Z,100.00
2019-05-26T18:31:36.192Z,100.00
2019-05-26T18:34:09.044Z,100.00
2019-05-26T18:36:41.227Z,100.00
2019-05-26T18:39:13.387Z,100.00
2019-05-26T18:41:52.150Z,100.00
2019-05-26T18:44:24.527Z,100.00
2019-05-26T18:46:55.746Z,98.22
2019-05-26T18:49:27.893Z,84.59
2019-05-26T18:51:57.923Z,58.06
2019-05-26T18:54:34.010Z,41.09
2019-05-26T18:57:05.033Z,28.47
2019-05-26T18:59:35.407Z,13.76
2019-05-26T19:04:55.826Z,0.00
2019-05-26T19:07:25.651Z,0.00
2019-05-26T19:09:55.926Z,0.00
2019-05-26T19:12:30.556Z,0.00
2019-05-26T19:15:03.844Z,0.00
2019-05-26T19:17:33.963Z,0.00
2019-05-26T19:20:16.110Z,0.00
2019-05-26T19:22:41.484Z,0.00
2019-05-26T19:25:13.564Z,0.00
2019-05-26T19:27:46.019Z,0.00
2019-05-26T19:30:16.785Z,0.00
2019-05-26T19:32:48.898Z,0.00
2019-05-26T19:35:21.106Z,0.00
2019-05-26T19:37:51.031Z,0.00
2019-05-26T19:40:24.506Z,0.00
2019-05-26T19:42:54.684Z,0.00
2019-05-26T19:45:28.727Z,0.00
2019-05-26T19:47:59.006Z,0.00
2019-05-26T19:50:29.128Z,0.00
2019-05-26T19:53:04.112Z,0.00
2019-05-26T19:55:38.177Z,0.00
2019-05-26T19:58:08.634Z,0.00
2019-05-26T20:00:38.409Z,0.00
2019-05-26T20:03:11.467Z,0.00
2019-05-26T20:05:43.628Z,0.00
2019-05-26T20:08:13.955Z,0.00
2019-05-26T20:10:47.032Z,0.00
2019-05-26T20:13:16.928Z,0.00
2019-05-26T20:15:49.448Z,0.00
2019-05-26T20:18:19.368Z,0.00
2019-05-26T20:20:49.260Z,0.00
2019-05-26T20:23:19.169Z,0.00
2019-05-26T20:25:52.176Z,0.00
2019-05-26T20:28:22.899Z,0.00
2019-05-26T20:30:57.204Z,0.00
2019-05-26T20:33:29.283Z,0.00
2019-05-26T20:36:05.863Z,0.00
2019-05-26T20:38:39.695Z,0.00
2019-05-26T20:41:09.447Z,0.00
2019-05-26T20:43:41.725Z,0.00
2019-05-26T20:46:11.485Z,0.00
2019-05-26T20:48:41.554Z,0.00
2019-05-26T20:51:13.384Z,0.00
2019-05-26T20:53:43.113Z,0.00
2019-05-26T20:56:12.963Z,0.00
2019-05-26T20:58:42.802Z,0.00
2019-05-26T21:01:12.499Z,0.00
2019-05-26T21:03:43.117Z,0.00
2019-05-26T21:06:13.613Z,0.00
2019-05-26T21:08:43.409Z,0.00
2019-05-26T21:11:14.575Z,0.00
2019-05-26T21:13:44.533Z,0.00
2019-05-26T21:16:15.387Z,0.00
2019-05-26T21:18:45.154Z,0.00
2019-05-26T21:21:14.917Z,0.00
2019-05-26T21:23:44.655Z,0.00
2019-05-26T21:26:15.694Z,0.00
2019-05-26T21:28:46.376Z,0.00
2019-05-26T21:31:16.777Z,0.00
2019-05-26T21:33:46.367Z,0.00
2019-05-26T21:36:16.150Z,0.00
2019-05-26T21:38:45.874Z,0.00
2019-05-26T21:41:15.683Z,0.00
2019-05-26T21:43:45.358Z,0.00
2019-05-26T21:46:15.115Z,0.00
2019-05-26T21:48:44.971Z,0.00
2019-05-26T21:51:14.736Z,0.00
2019-05-26T21:53:44.514Z,0.00
2019-05-26T21:56:14.367Z,0.00
2019-05-26T21:58:44.131Z,0.00
2019-05-26T22:01:14.775Z,0.00
2019-05-26T22:03:44.675Z,0.00
2019-05-26T22:06:14.403Z,0.00
2019-05-26T22:08:44.174Z,0.00
2019-05-26T22:11:13.956Z,100.00
2019-05-26T22:13:43.798Z,100.00
2019-05-26T22:16:13.935Z,100.00
2019-05-26T22:18:43.758Z,100.00
2019-05-26T22:21:13.535Z,100.00
2019-05-26T22:23:43.228Z,100.00
2019-05-26T22:26:12.948Z,100.00
2019-05-26T22:28:42.581Z,100.00
2019-05-26T22:31:12.730Z,100.00
2019-05-26T22:33:42.571Z,100.00
2019-05-26T22:36:12.331Z,100.00
2019-05-26T22:38:42.138Z,100.00
2019-05-26T22:41:11.717Z,100.00
2019-05-26T22:43:41.578Z,100.00
2019-05-26T22:46:11.349Z,100.00
2019-05-26T22:48:40.950Z,100.00
2019-05-26T22:51:10.561Z,100.00
2019-05-26T22:53:40.347Z,0.00
2019-05-26T22:56:10.018Z,100.00
2019-05-26T22:58:39.789Z,100.00
2019-05-26T23:01:09.553Z,100.00
2019-05-26T23:03:39.302Z,100.00
2019-05-26T23:06:09.122Z,100.00
2019-05-26T23:08:38.824Z,100.00
2019-05-26T23:11:08.560Z,100.00
2019-05-26T23:13:38.332Z,100.00
2019-05-26T23:16:08.023Z,0.00
2019-05-26T23:18:37.723Z,100.00
2019-05-26T23:21:07.525Z,100.00
2019-05-26T23:23:37.156Z,100.00
2019-05-26T23:26:06.889Z,100.00
2019-05-26T23:28:38.326Z,100.00
2019-05-26T23:31:08.330Z,100.00
2019-05-26T23:33:38.040Z,0.00
2019-05-26T23:36:07.974Z,0.00
2019-05-26T23:38:37.789Z,0.00
2019-05-26T23:41:07.467Z,0.00
2019-05-26T23:43:37.190Z,0.00
2019-05-26T23:46:06.884Z,0.00
2019-05-26T23:48:36.647Z,0.00
2019-05-26T23:51:06.382Z,0.00
2019-05-26T23:53:36.077Z,0.00
2019-05-26T23:56:05.873Z,0.00
2019-05-26T23:58:35.534Z,0.00
